Time;durP1;ratioP1;P1;durP2;ratioP2;P2;SDS_P1;SDS_P2;PMS_P1;PMS_P2;Temp;Humidity;BMP_temperature;BMP_pressure;BME280_temperature;BME280_humidity;BME280_pressure;Samples;Min_cycle;Max_cycle;Signal;HPM_P1;HPM_P2
2021/11/03 00:00:38;;;;;;;37.63;28.63;;;;;;;14.01;89.15;97737.63;2057023;87;21100;-82
2021/11/03 00:03:40;;;;;;;32.80;25.90;;;;;;;15.21;81.59;97744.70;2037903;87;20975;-82
2021/11/03 00:06:41;;;;;;;31.35;22.45;;;;;;;16.04;78.34;97741.31;2056118;87;21386;-83
2021/11/03 00:09:41;;;;;;;29.85;22.45;;;;;;;16.68;75.22;97732.94;2056630;87;20987;-82
2021/11/03 00:12:42;;;;;;;27.00;21.82;;;;;;;17.10;72.21;97738.66;2056711;87;21381;-83
2021/11/03 00:15:42;;;;;;;25.27;19.35;;;;;;;17.40;69.92;97736.84;2056279;87;21034;-83
2021/11/03 00:18:43;;;;;;;24.43;19.55;;;;;;;17.60;68.36;97738.35;2056402;87;20964;-82
2021/11/03 00:21:43;;;;;;;28.65;19.62;;;;;;;17.31;63.38;97741.92;2056358;87;21063;-82
2021/11/03 00:24:44;;;;;;;27.62;19.92;;;;;;;15.44;61.57;97756.41;2056786;87;21400;-82
2021/11/03 00:27:45;;;;;;;25.40;19.98;;;;;;;13.66;62.50;97761.86;2056523;87;20983;-82
2021/11/03 00:30:45;;;;;;;27.07;19.92;;;;;;;12.40;64.46;97761.97;2056518;87;21016;-83
2021/11/03 00:33:45;;;;;;;24.27;20.60;;;;;;;11.49;66.10;97764.20;2056409;87;20967;-83
2021/11/03 00:36:46;;;;;;;28.95;21.70;;;;;;;10.79;67.80;97768.19;2056581;87;20976;-83
2021/11/03 00:39:46;;;;;;;28.92;23.22;;;;;;;10.34;69.27;97771.02;2056460;87;20972;-82
2021/11/03 00:42:47;;;;;;;29.90;23.52;;;;;;;9.98;70.41;97772.84;2056479;87;21331;-82
2021/11/03 00:45:47;;;;;;;31.70;22.40;;;;;;;9.69;71.43;97774.66;2056439;87;21318;-83
2021/11/03 00:48:48;;;;;;;30.23;22.77;;;;;;;9.45;72.28;97771.17;2056497;87;21028;-82
2021/11/03 00:51:48;;;;;;;29.47;23.10;;;;;;;9.28;73.06;97769.45;2079107;85;21412;-82
2021/11/03 00:54:49;;;;;;;29.70;22.63;;;;;;;9.10;73.66;97772.92;2100450;85;20988;-82
2021/11/03 00:57:49;;;;;;;31.30;23.23;;;;;;;9.00;74.43;97773.78;2100406;84;20979;-82
2021/11/03 01:00:50;;;;;;;33.13;23.87;;;;;;;8.91;74.99;97775.94;2100526;84;21008;-81
2021/11/03 01:03:51;;;;;;;31.50;24.20;;;;;;;8.82;75.51;97782.00;2100369;84;20961;-81
2021/11/03 01:06:51;;;;;;;30.20;22.70;;;;;;;8.74;75.87;97793.26;2100526;85;21004;-81
2021/11/03 01:09:52;;;;;;;32.00;24.20;;;;;;;8.63;76.30;97795.80;2100473;85;21420;-81
2021/11/03 01:12:52;;;;;;;31.27;23.83;;;;;;;8.56;76.78;97804.02;2100515;84;21348;-82
2021/11/03 01:15:57;;;;;;;31.03;22.93;;;;;;;8.52;77.21;97794.90;2100487;85;20991;-81
2021/11/03 01:18:55;;;;;;;31.60;23.73;;;;;;;8.48;77.51;97803.12;2100191;84;20944;-82
2021/11/03 01:21:57;;;;;;;33.80;25.47;;;;;;;8.44;77.72;97801.81;2100258;85;21387;-82
2021/11/03 01:24:57;;;;;;;30.27;23.47;;;;;;;8.42;78.07;97800.94;2100546;84;20945;-81
2021/11/03 01:27:57;;;;;;;32.40;24.40;;;;;;;8.39;78.18;97795.72;2100388;84;20996;-81
2021/11/03 01:30:58;;;;;;;31.97;24.77;;;;;;;8.34;78.38;97794.41;2100552;85;20976;-82
2021/11/03 01:33:59;;;;;;;28.87;23.57;;;;;;;8.27;78.57;97790.87;2100257;84;21016;-80
2021/11/03 01:37:00;;;;;;;31.67;24.17;;;;;;;8.24;78.81;97795.20;2100443;84;20956;-82
2021/11/03 01:40:00;;;;;;;35.20;24.77;;;;;;;8.17;78.81;97794.30;2100186;85;21059;-80
2021/11/03 01:43:00;;;;;;;30.63;23.47;;;;;;;8.14;78.93;97796.02;2100243;84;20960;-81
2021/11/03 01:46:01;;;;;;;33.67;25.00;;;;;;;8.09;79.02;97799.89;2100339;84;21328;-82
2021/11/03 01:49:01;;;;;;;36.63;26.13;;;;;;;8.05;79.21;97794.67;2100427;84;21011;-82
2021/11/03 01:52:02;;;;;;;36.97;26.47;;;;;;;8.03;79.49;97801.16;2077744;84;21034;-80
2021/11/03 01:55:02;;;;;;;34.43;26.87;;;;;;;8.01;79.58;97806.78;2056139;87;21027;-80
2021/11/03 01:58:03;;;;;;;36.23;27.07;;;;;;;7.96;79.83;97810.66;2056252;87;20956;-81
2021/11/03 02:01:03;;;;;;;39.10;27.20;;;;;;;7.93;79.96;97815.84;2056305;87;20983;-83
2021/11/03 02:04:12;;;;;;;40.57;30.03;;;;;;;7.90;80.15;97827.51;2056484;87;21363;-81
2021/11/03 02:07:13;;;;;;;43.37;30.60;;;;;;;7.87;80.43;97825.33;2056349;87;20947;-81
2021/11/03 02:10:13;;;;;;;47.53;33.13;;;;;;;7.81;80.61;97826.58;2056399;87;21000;-80
2021/11/03 02:13:14;;;;;;;52.30;35.07;;;;;;;7.78;80.72;97825.23;2056646;87;20948;-83
2021/11/03 02:16:14;;;;;;;57.73;38.73;;;;;;;7.78;81.18;97823.50;2056258;87;21043;-81
2021/11/03 02:19:15;;;;;;;57.53;38.03;;;;;;;7.77;81.27;97817.87;2056621;87;21015;-82
2021/11/03 02:22:15;;;;;;;61.43;41.87;;;;;;;8.83;95.56;97816.27;2056094;87;21055;-79
2021/11/03 02:25:16;;;;;;;68.50;41.87;;;;;;;9.78;80.98;97813.73;2056532;87;20980;-79
2021/11/03 02:28:16;;;;;;;71.80;44.60;;;;;;;9.16;78.56;97816.75;2056340;87;20960;-81
2021/11/03 02:31:17;;;;;;;65.90;42.97;;;;;;;8.69;78.63;97815.36;2056526;87;21003;-80
2021/11/03 02:34:17;;;;;;;72.20;46.37;;;;;;;8.29;79.17;97815.58;2056619;87;21415;-79
2021/11/03 02:37:18;;;;;;;68.87;45.07;;;;;;;7.98;79.40;97827.55;2056377;87;20979;-79
2021/11/03 02:40:18;;;;;;;67.33;44.23;;;;;;;7.70;79.82;97826.91;2056449;87;20992;-80
2021/11/03 02:43:19;;;;;;;73.97;46.40;;;;;;;7.50;80.62;97826.34;2056424;87;21012;-80
2021/11/03 02:46:20;;;;;;;75.97;47.53;;;;;;;7.31;80.75;97824.02;2056325;87;21282;-80
2021/11/03 02:49:20;;;;;;;77.90;47.00;;;;;;;7.20;81.16;97823.06;2056099;87;20979;-80
2021/11/03 02:52:21;;;;;;;76.80;48.03;;;;;;;7.10;81.01;97821.67;2079444;85;21047;-80
2021/11/03 02:55:21;;;;;;;75.70;46.30;;;;;;;6.95;81.15;97815.48;2100303;85;21028;-82
2021/11/03 02:58:21;;;;;;;76.60;46.10;;;;;;;6.86;81.40;97820.55;2100293;84;21003;-81
2021/11/03 03:01:22;;;;;;;73.87;45.17;;;;;;;6.82;81.50;97820.50;2100220;84;21031;-81
2021/11/03 03:04:22;;;;;;;74.33;46.77;;;;;;;6.77;81.57;97825.64;2100322;85;21008;-81
2021/11/03 03:07:23;;;;;;;77.07;45.07;;;;;;;6.76;81.75;97817.84;2100273;84;21387;-80
2021/11/03 03:10:24;;;;;;;72.80;44.50;;;;;;;6.78;81.87;97815.70;2100024;84;21380;-79
2021/11/03 03:13:24;;;;;;;67.63;42.20;;;;;;;6.75;82.03;97816.97;2100439;84;21020;-81
2021/11/03 03:16:25;;;;;;;70.03;43.40;;;;;;;6.75;82.17;97814.80;2100403;85;21004;-81
2021/11/03 03:19:25;;;;;;;65.50;42.13;;;;;;;6.77;82.30;97819.58;2100492;84;20964;-79
2021/11/03 03:22:26;;;;;;;69.03;42.10;;;;;;;6.77;82.29;97817.86;2104784;84;21039;-80
2021/11/03 03:25:27;;;;;;;70.40;43.90;;;;;;;6.78;82.52;97820.89;2104170;84;21293;-79
2021/11/03 03:28:30;;;;;;;70.23;42.07;;;;;;;6.79;82.52;97823.93;2100421;84;21288;-81
2021/11/03 03:31:31;;;;;;;67.93;42.73;;;;;;;6.77;82.47;97829.95;2100260;84;21013;-80
2021/11/03 03:34:32;;;;;;;70.50;41.97;;;;;;;6.75;82.43;97832.53;2100245;84;20991;-83
2021/11/03 03:37:33;;;;;;;68.73;42.90;;;;;;;7.52;95.48;97840.20;2100552;85;21308;-82
2021/11/03 03:40:34;;;;;;;65.10;41.63;;;;;;;10.76;100.00;97824.33;2100370;85;20972;-81
2021/11/03 03:43:34;;;;;;;61.77;40.00;;;;;;;12.85;91.56;97820.29;2100123;84;21559;-84
2021/11/03 03:46:35;;;;;;;57.20;38.07;;;;;;;14.42;83.98;97816.03;2100836;85;20972;-81
2021/11/03 03:49:35;;;;;;;53.37;36.67;;;;;;;15.35;79.78;97816.67;2101096;84;21023;-83
2021/11/03 03:52:36;;;;;;;51.70;33.90;;;;;;;16.03;76.75;97821.19;2077210;85;21019;-84
2021/11/03 03:55:36;;;;;;;51.92;34.20;;;;;;;16.58;74.03;97819.71;2056536;87;21027;-82
2021/11/03 03:58:37;;;;;;;50.65;34.10;;;;;;;16.66;69.91;97823.02;2056580;87;21000;-82
2021/11/03 04:01:37;;;;;;;47.20;32.40;;;;;;;16.99;66.62;97827.31;2056949;87;20980;-82
2021/11/03 04:04:38;;;;;;;39.65;30.55;;;;;;;17.17;66.39;97825.89;2057252;87;20972;-82
2021/11/03 04:07:38;;;;;;;43.45;29.87;;;;;;;17.54;64.02;97825.62;2057025;87;21369;-83
2021/11/03 04:10:39;;;;;;;44.65;30.37;;;;;;;17.66;61.62;97834.50;2057056;87;20991;-82
2021/11/03 04:13:39;;;;;;;42.17;30.32;;;;;;;17.77;59.97;97837.65;2056902;87;20959;-83
2021/11/03 04:16:40;;;;;;;39.53;29.55;;;;;;;17.86;59.08;97842.22;2057020;87;21106;-82
2021/11/03 04:19:40;;;;;;;39.88;29.00;;;;;;;18.03;58.24;97841.20;2056754;87;21323;-82
2021/11/03 04:22:41;;;;;;;37.75;28.23;;;;;;;18.19;57.94;97848.14;2056629;87;21039;-82
2021/11/03 04:25:41;;;;;;;37.30;28.40;;;;;;;18.06;56.47;97850.33;2056780;87;21564;-83
2021/11/03 04:28:42;;;;;;;39.13;28.02;;;;;;;18.03;56.30;97854.40;2056940;87;20971;-86
2021/11/03 04:31:42;;;;;;;38.95;29.15;;;;;;;18.13;54.31;97853.17;2056590;87;20988;-82
2021/11/03 04:34:43;;;;;;;38.73;27.70;;;;;;;18.21;55.49;97852.48;2056354;87;21066;-82
2021/11/03 04:37:43;;;;;;;41.63;31.15;;;;;;;17.37;50.00;97859.59;2056418;87;20983;-82
2021/11/03 04:40:44;;;;;;;37.83;28.75;;;;;;;17.37;50.00;97859.59;2055912;87;21698;-82
2021/11/03 04:43:46;;;;;;;35.68;28.77;;;;;;;16.04;50.97;97878.19;2056493;87;20975;-82
2021/11/03 04:46:46;;;;;;;38.42;28.67;;;;;;;15.32;52.74;97886.86;2055997;87;20968;-80
2021/11/03 04:49:47;;;;;;;38.00;28.70;;;;;;;15.15;53.83;97886.78;2055478;87;20971;-80
2021/11/03 04:52:48;;;;;;;35.70;27.17;;;;;;;15.35;53.95;97888.11;2055593;84;21071;-80
2021/11/03 04:55:48;;;;;;;38.10;28.50;;;;;;;15.19;52.97;97883.64;2055491;87;20979;-80
2021/11/03 04:58:49;;;;;;;35.92;26.35;;;;;;;13.53;52.65;97893.19;2055361;87;20963;-81
2021/11/03 05:01:49;;;;;;;37.80;28.25;;;;;;;11.75;55.02;97894.67;2055886;87;20955;-80
2021/11/03 05:04:50;;;;;;;42.75;29.55;;;;;;;10.47;57.33;97901.43;2056033;87;21315;-81
2021/11/03 05:07:51;;;;;;;36.43;27.47;;;;;;;9.56;59.79;97910.14;2056345;87;20972;-81
2021/11/03 05:10:52;;;;;;;36.27;27.23;;;;;;;8.82;61.56;97910.81;2056689;87;21015;-80
2021/11/03 05:13:52;;;;;;;37.43;27.93;;;;;;;8.23;63.89;97915.22;2056784;87;20972;-80
2021/11/03 05:16:53;;;;;;;41.90;29.97;;;;;;;7.77;65.94;97924.38;2056381;87;21043;-81
2021/11/03 05:19:53;;;;;;;42.33;29.13;;;;;;;7.39;67.65;97925.77;2056262;87;20971;-80
2021/11/03 05:22:54;;;;;;;44.23;32.23;;;;;;;7.14;69.45;97928.54;2056162;87;21055;-80
2021/11/03 05:25:54;;;;;;;47.53;32.90;;;;;;;6.89;70.63;97927.36;2056998;87;20975;-81
2021/11/03 05:28:59;;;;;;;42.93;30.23;;;;;;;6.76;70.93;97923.75;2056540;87;20976;-79
2021/11/03 05:32:00;;;;;;;43.45;31.10;;;;;;;6.60;71.49;97929.60;2055857;87;20971;-79
2021/11/03 05:35:00;;;;;;;46.10;32.23;;;;;;;6.46;72.61;97924.23;2055909;87;21095;-80
2021/11/03 05:38:01;;;;;;;47.53;32.13;;;;;;;6.33;72.83;97921.91;2055981;87;20972;-78
2021/11/03 05:41:01;;;;;;;49.30;33.63;;;;;;;6.23;73.48;97921.33;2054988;87;20963;-79
2021/11/03 05:44:02;;;;;;;48.33;32.83;;;;;;;6.16;74.06;97919.50;2055168;87;21350;-81
2021/11/03 05:47:02;;;;;;;51.80;33.87;;;;;;;6.10;74.39;97924.59;2055444;87;21339;-78
2021/11/03 05:50:03;;;;;;;52.20;34.07;;;;;;;6.02;74.70;97927.05;2055584;87;21035;-77
2021/11/03 05:53:03;;;;;;;55.87;35.87;;;;;;;6.00;75.27;97936.51;2076260;85;21027;-79
2021/11/03 05:56:04;;;;;;;59.70;35.20;;;;;;;5.98;75.75;97939.92;2099154;84;20996;-80
2021/11/03 05:59:05;;;;;;;77.17;42.50;;;;;;;6.01;75.86;97934.79;2098779;84;21339;-81
2021/11/03 06:02:05;;;;;;;222.03;150.30;;;;;;;6.02;76.43;97936.11;2099127;85;21041;-80
2021/11/03 06:05:06;;;;;;;103.60;66.43;;;;;;;6.06;76.54;97948.69;2099608;84;20995;-80
2021/11/03 06:08:06;;;;;;;64.23;41.50;;;;;;;6.10;77.21;97951.80;2099522;84;21032;-80
2021/11/03 06:11:07;;;;;;;54.20;37.83;;;;;;;6.12;77.39;97952.70;2099478;85;20972;-79
2021/11/03 06:14:08;;;;;;;57.97;37.87;;;;;;;6.16;77.63;97962.26;2098586;84;21039;-80
2021/11/03 06:17:08;;;;;;;63.30;40.07;;;;;;;6.16;77.63;97962.26;2099026;85;21033;-81
2021/11/03 06:20:09;;;;;;;66.00;40.43;;;;;;;6.16;77.24;97957.50;2098813;84;21030;-81
2021/11/03 06:23:12;;;;;;;63.47;39.40;;;;;;;6.19;77.35;97962.73;2098929;85;21118;-82
2021/11/03 06:26:12;;;;;;;61.67;42.03;;;;;;;6.21;77.25;97963.20;2098967;85;21012;-81
2021/11/03 06:29:13;;;;;;;65.77;41.57;;;;;;;6.16;76.43;97966.14;2098325;85;20960;-82
2021/11/03 06:32:13;;;;;;;58.77;38.47;;;;;;;6.15;76.54;97973.89;2098976;84;21031;-81
2021/11/03 06:35:14;;;;;;;50.20;35.27;;;;;;;6.16;76.71;97978.23;2099180;84;21059;-81
2021/11/03 06:38:15;;;;;;;65.53;42.67;;;;;;;6.15;76.99;97982.97;2099775;85;21481;-80
2021/11/03 06:41:16;;;;;;;55.03;37.50;;;;;;;6.21;78.31;97983.93;2099347;84;21047;-81
2021/11/03 06:44:17;;;;;;;51.13;36.27;;;;;;;6.34;79.03;97988.87;2098226;85;20971;-80
2021/11/03 06:47:19;;;;;;;56.93;36.77;;;;;;;6.47;79.05;97995.11;2098796;84;21443;-83
2021/11/03 06:50:20;;;;;;;53.47;35.80;;;;;;;6.57;79.31;98008.22;2099402;85;21024;-83
2021/11/03 06:53:22;;;;;;;50.33;35.67;;;;;;;6.72;79.26;98001.08;2076843;85;21023;-80
2021/11/03 06:56:23;;;;;;;49.23;36.33;;;;;;;6.82;79.29;97997.75;2055235;87;21814;-82
2021/11/03 06:59:23;;;;;;;48.10;34.10;;;;;;;6.95;79.25;98006.59;2054698;87;20976;-79
2021/11/03 07:02:24;;;;;;;45.93;30.50;;;;;;;7.08;79.33;98005.03;2055428;87;20999;-81
2021/11/03 07:05:24;;;;;;;45.00;31.00;;;;;;;7.22;79.87;98010.83;2054920;87;20952;-80
2021/11/03 07:08:25;;;;;;;48.67;32.13;;;;;;;7.35;79.22;98013.13;2055269;87;21352;-82
2021/11/03 07:11:27;;;;;;;50.37;36.37;;;;;;;7.47;79.31;98013.27;2055982;87;21323;-80
2021/11/03 07:14:28;;;;;;;50.43;35.73;;;;;;;7.99;80.79;98013.81;2054310;87;20994;-80
2021/11/03 07:17:28;;;;;;;52.13;35.00;;;;;;;8.09;78.60;98018.66;2054916;87;21672;-82
2021/11/03 07:20:28;;;;;;;45.67;32.83;;;;;;;8.07;78.18;98021.24;2054507;87;20971;-81
2021/11/03 07:23:29;;;;;;;49.47;34.03;;;;;;;8.09;78.09;98018.23;2053967;87;21030;-80
2021/11/03 07:26:30;;;;;;;54.40;39.17;;;;;;;8.11;78.02;98027.34;2054220;87;20999;-81
2021/11/03 07:29:30;;;;;;;45.53;32.97;;;;;;;8.18;78.04;98030.43;2054504;87;21417;-82
2021/11/03 07:32:31;;;;;;;39.57;30.60;;;;;;;8.22;78.13;98033.49;2054359;87;21379;-80
2021/11/03 07:35:32;;;;;;;40.43;31.23;;;;;;;8.25;77.97;98036.12;2055036;87;20971;-82
2021/11/03 07:38:32;;;;;;;42.23;32.60;;;;;;;8.29;77.98;98043.09;2054412;87;21027;-82
2021/11/03 07:41:32;;;;;;;42.90;31.60;;;;;;;8.35;77.92;98044.47;2054850;87;20979;-85
2021/11/03 07:44:33;;;;;;;42.03;31.17;;;;;;;8.34;77.92;98047.05;2054838;87;21003;-80
2021/11/03 07:47:33;;;;;;;43.40;31.27;;;;;;;8.35;77.91;98050.09;2055006;87;20972;-80
2021/11/03 07:50:34;;;;;;;48.43;31.27;;;;;;;8.39;78.13;98051.86;2054977;87;21313;-85
2021/11/03 07:53:35;;;;;;;35.77;27.47;;;;;;;8.45;77.97;98054.52;2075778;84;21011;-79
2021/11/03 07:56:35;;;;;;;45.77;31.73;;;;;;;8.49;78.08;98061.05;2098846;85;21011;-78
2021/11/03 07:59:36;;;;;;;62.17;44.00;;;;;;;8.57;77.83;98066.30;2099593;84;21011;-82
2021/11/03 08:02:36;;;;;;;40.33;30.67;;;;;;;9.61;81.88;98064.31;2098701;85;20987;-81
2021/11/03 08:05:37;;;;;;;33.70;25.47;;;;;;;9.97;75.86;98067.01;2098438;85;20965;-81
2021/11/03 08:08:38;;;;;;;32.83;23.70;;;;;;;9.80;74.99;98072.19;2098171;84;20945;-82
2021/11/03 08:11:47;;;;;;;28.60;21.90;;;;;;;9.64;74.83;98078.66;2098578;85;21235;-80
2021/11/03 08:14:41;;;;;;;26.73;17.53;;;;;;;9.58;75.18;98080.80;2096967;84;21084;-84
2021/11/03 08:17:42;;;;;;;26.77;18.27;;;;;;;9.60;75.14;98082.11;2098129;84;20980;-81
2021/11/03 08:20:42;;;;;;;24.53;18.47;;;;;;;9.55;74.72;98082.97;2098556;84;21447;-79
2021/11/03 08:23:43;;;;;;;25.97;17.07;;;;;;;9.60;76.93;98084.28;2098381;84;21436;-83
2021/11/03 08:26:43;;;;;;;28.87;17.40;;;;;;;9.77;74.09;98085.64;2097968;85;21019;-82
2021/11/03 08:29:44;;;;;;;28.87;17.43;;;;;;;9.73;74.22;98087.37;2098010;84;20958;-80
2021/11/03 08:32:44;;;;;;;25.13;15.27;;;;;;;9.76;74.38;98089.98;2098625;84;20963;-82
2021/11/03 08:35:45;;;;;;;21.90;15.73;;;;;;;9.81;73.99;98089.56;2098870;84;20992;-82
2021/11/03 08:38:45;;;;;;;19.47;15.57;;;;;;;9.84;73.84;98092.17;2098591;84;21615;-80
2021/11/03 08:41:46;;;;;;;25.23;16.53;;;;;;;9.89;73.21;98098.27;2098663;84;21047;-80
2021/11/03 08:44:46;;;;;;;23.23;14.87;;;;;;;9.95;73.38;98092.64;2097916;84;21034;-81
2021/11/03 08:47:47;;;;;;;26.57;16.57;;;;;;;10.07;73.46;98097.44;2097952;84;20964;-83
2021/11/03 08:50:47;;;;;;;21.07;15.03;;;;;;;10.13;73.05;98088.33;2097980;84;21376;-81
2021/11/03 08:53:48;;;;;;;21.40;13.63;;;;;;;10.24;72.39;98101.41;2078558;84;21027;-83
2021/11/03 08:56:48;;;;;;;23.03;14.20;;;;;;;10.30;72.39;98103.16;2055232;87;21035;-81
2021/11/03 08:59:49;;;;;;;17.03;13.00;;;;;;;10.32;72.06;98104.03;2055776;87;21597;-81
2021/11/03 09:02:50;;;;;;;20.40;12.63;;;;;;;10.36;71.77;98101.86;2055054;87;20987;-80
2021/11/03 09:05:50;;;;;;;17.97;12.93;;;;;;;10.41;71.85;98103.64;2054590;87;21015;-80
2021/11/03 09:08:52;;;;;;;16.87;12.60;;;;;;;10.47;71.36;98105.38;2034896;87;20939;-80
2021/11/03 09:11:53;;;;;;;16.77;12.33;;;;;;;10.54;71.64;98097.98;2055116;87;21069;-80
2021/11/03 09:14:54;;;;;;;15.27;12.17;;;;;;;10.58;71.49;98107.56;2054203;87;21035;-81
2021/11/03 09:17:54;;;;;;;14.80;10.97;;;;;;;10.67;71.55;98106.69;2054735;87;20994;-81
2021/11/03 09:20:55;;;;;;;12.93;11.10;;;;;;;10.72;70.81;98103.64;2055022;87;20976;-82
2021/11/03 09:23:55;;;;;;;13.53;11.03;;;;;;;10.75;71.16;98100.59;2054872;87;21080;-80
2021/11/03 09:26:56;;;;;;;18.87;11.15;;;;;;;10.81;71.03;98108.42;2055173;87;20979;-81
2021/11/03 09:29:58;;;;;;;14.67;10.43;;;;;;;10.90;70.96;98106.67;2034272;87;21303;-81
2021/11/03 09:33:00;;;;;;;12.50;9.93;;;;;;;10.92;70.17;98119.28;2054472;87;21092;-81
2021/11/03 09:36:01;;;;;;;10.20;8.83;;;;;;;10.99;70.62;98117.09;2055453;87;21098;-84
2021/11/03 09:39:01;;;;;;;12.03;9.90;;;;;;;11.08;71.10;98114.03;2054761;87;20967;-81
2021/11/03 09:42:02;;;;;;;11.80;9.00;;;;;;;11.59;69.56;98119.15;2054546;87;20971;-80
2021/11/03 09:45:02;;;;;;;11.30;8.98;;;;;;;11.54;68.59;98113.07;2054906;87;20987;-80
2021/11/03 09:48:03;;;;;;;11.48;8.35;;;;;;;11.50;68.41;98110.91;2055091;87;20940;-80
2021/11/03 09:51:04;;;;;;;12.88;8.70;;;;;;;11.51;67.89;98102.63;2054957;87;21365;-81
2021/11/03 09:54:04;;;;;;;12.40;8.25;;;;;;;11.53;67.64;98106.97;2074083;84;21019;-79
2021/11/03 09:57:04;;;;;;;12.53;7.10;;;;;;;11.56;67.65;98105.66;2098775;84;21039;-79
2021/11/03 10:00:05;;;;;;;9.45;6.58;;;;;;;11.67;67.41;98106.92;2098874;84;20983;-80
2021/11/03 10:03:05;;;;;;;8.55;6.33;;;;;;;11.65;67.04;98103.00;2097996;84;20948;-84
2021/11/03 10:06:06;;;;;;;9.35;5.75;;;;;;;11.72;67.20;98107.77;2098800;84;21455;-79
2021/11/03 10:09:06;;;;;;;8.65;6.45;;;;;;;11.80;66.88;98104.71;2098768;84;21340;-79
2021/11/03 10:12:07;;;;;;;8.13;6.50;;;;;;;11.93;67.43;98102.47;2098445;84;20972;-80
2021/11/03 10:15:07;;;;;;;7.90;4.90;;;;;;;12.05;67.18;98109.38;2098466;84;20991;-81
2021/11/03 10:18:08;;;;;;;5.92;4.65;;;;;;;12.21;66.28;98108.88;2098467;84;20964;-80
2021/11/03 10:21:09;;;;;;;8.75;4.12;;;;;;;12.33;64.79;98102.25;2098593;85;21300;-79
2021/11/03 10:24:09;;;;;;;8.70;4.70;;;;;;;12.38;64.54;98099.16;2098930;84;21355;-79
2021/11/03 10:27:10;;;;;;;7.30;4.37;;;;;;;12.49;63.85;98101.26;2099225;84;20965;-80
2021/11/03 10:30:14;;;;;;;7.28;5.22;;;;;;;12.54;64.34;98094.67;2098076;85;21011;-79
2021/11/03 10:33:14;;;;;;;12.15;5.67;;;;;;;12.70;64.62;98097.16;2098051;84;21461;-80
2021/11/03 10:36:15;;;;;;;4.97;4.33;;;;;;;12.82;63.67;98096.18;2098474;84;21047;-81
2021/11/03 10:39:16;;;;;;;14.05;5.10;;;;;;;12.78;63.39;98099.70;2097922;84;21443;-80
2021/11/03 10:42:16;;;;;;;7.37;5.75;;;;;;;12.80;62.25;98098.39;2098100;84;20956;-80
2021/11/03 10:45:17;;;;;;;6.87;4.55;;;;;;;12.75;62.86;98101.91;2098509;84;21420;-80
2021/11/03 10:48:17;;;;;;;5.97;3.92;;;;;;;12.74;62.08;98095.37;2098733;84;21311;-80
2021/11/03 10:51:18;;;;;;;7.58;3.90;;;;;;;12.65;61.79;98099.39;2098526;84;20956;-81
2021/11/03 10:54:19;;;;;;;10.48;7.35;;;;;;;12.68;62.36;98091.50;2098488;84;21035;-80
2021/11/03 10:57:19;;;;;;;8.35;5.58;;;;;;;12.72;62.16;98093.22;2098197;84;20964;-79
2021/11/03 11:00:20;;;;;;;4.08;3.62;;;;;;;12.62;62.14;98096.80;2097189;84;20941;-79
2021/11/03 11:03:20;;;;;;;6.83;3.72;;;;;;;12.63;62.53;98095.47;2096789;84;20945;-81
2021/11/03 11:06:21;;;;;;;17.90;4.40;;;;;;;12.69;61.24;98086.25;2097548;84;21015;-81
2021/11/03 11:09:21;;;;;;;8.35;4.08;;;;;;;12.74;61.81;98098.87;2098507;84;21339;-78
2021/11/03 11:12:22;;;;;;;12.98;4.80;;;;;;;12.75;60.64;98097.98;2099131;84;20980;-85
2021/11/03 11:15:22;;;;;;;9.08;4.33;;;;;;;13.37;63.68;98095.25;2098671;84;20983;-83
2021/11/03 11:18:24;;;;;;;31.17;6.75;;;;;;;14.22;63.19;98088.49;2099263;84;20999;-82
2021/11/03 11:21:25;;;;;;;7.45;4.50;;;;;;;15.04;64.03;98084.58;2099362;85;21020;-83
2021/11/03 11:24:25;;;;;;;9.98;4.37;;;;;;;15.68;60.13;98078.58;2098735;84;21039;-85
2021/11/03 11:27:26;;;;;;;6.10;4.17;;;;;;;15.67;56.74;98077.72;2099058;84;21004;-82
2021/11/03 11:30:26;;;;;;;9.33;4.83;;;;;;;15.67;58.14;98073.77;2098804;84;20983;-82
2021/11/03 11:33:27;;;;;;;8.65;4.25;;;;;;;15.67;57.59;98071.14;2098728;84;21043;-84
2021/11/03 11:36:28;;;;;;;5.10;4.05;;;;;;;15.89;58.97;98068.92;2099422;84;21394;-84
2021/11/03 11:39:28;;;;;;;11.10;4.47;;;;;;;15.89;54.81;98070.23;2098829;84;20960;-83
2021/11/03 11:42:29;;;;;;;8.23;4.95;;;;;;;15.81;58.04;98063.82;2098987;85;21004;-81
2021/11/03 11:45:29;;;;;;;15.38;4.87;;;;;;;16.18;58.65;98067.81;2098655;84;21366;-83
2021/11/03 11:51:32;;;;;;;13.10;4.45;;;;;;;17.03;56.26;98050.86;2087248;85;21027;-81
2021/11/03 11:54:33;;;;;;;11.40;4.10;;;;;;;17.17;57.36;98053.53;2097610;84;21027;-82
2021/11/03 11:57:35;;;;;;;10.43;4.17;;;;;;;17.05;55.57;98058.27;2096428;84;21012;-81
2021/11/03 12:00:36;;;;;;;24.05;6.25;;;;;;;17.02;54.63;98056.58;2096486;84;20988;-79
2021/11/03 12:03:36;;;;;;;15.50;5.15;;;;;;;16.95;55.83;98054.15;2096330;84;21012;-80
2021/11/03 12:06:36;;;;;;;12.30;4.65;;;;;;;17.08;54.90;98048.51;2095677;84;20956;-80
2021/11/03 12:09:37;;;;;;;8.33;4.62;;;;;;;17.25;56.51;98055.09;2097041;84;21031;-81
2021/11/03 12:12:38;;;;;;;12.18;4.40;;;;;;;17.56;54.74;98049.86;2095088;84;20968;-81
2021/11/03 12:15:38;;;;;;;7.95;4.70;;;;;;;17.29;53.09;98054.97;2095975;84;21004;-80
2021/11/03 12:18:39;;;;;;;7.80;3.98;;;;;;;17.20;55.03;98049.95;2096060;84;21419;-80
2021/11/03 12:21:39;;;;;;;13.78;4.90;;;;;;;17.49;56.61;98047.85;2096147;84;21759;-81
2021/11/03 12:24:40;;;;;;;11.03;4.78;;;;;;;17.71;55.29;98049.45;2096808;84;21455;-79
2021/11/03 12:27:41;;;;;;;7.80;4.40;;;;;;;17.74;54.40;98046.72;2096919;84;21380;-79
2021/11/03 12:30:41;;;;;;;20.52;5.55;;;;;;;17.37;50.86;98048.20;2096636;84;20960;-80
2021/11/03 12:33:42;;;;;;;16.65;4.83;;;;;;;17.06;53.82;98049.45;2096127;85;21007;-81
2021/11/03 12:36:42;;;;;;;27.10;5.10;;;;;;;17.33;53.26;98047.84;2095622;84;21008;-82
2021/11/03 12:39:43;;;;;;;8.63;3.50;;;;;;;17.22;52.91;98053.86;2096228;84;20972;-80
2021/11/03 12:42:43;;;;;;;13.25;3.90;;;;;;;17.09;52.35;98056.83;2096173;84;20995;-80
2021/11/03 12:45:44;;;;;;;17.10;4.10;;;;;;;17.35;51.92;98052.66;2096051;85;21344;-79
2021/11/03 12:48:45;;;;;;;11.78;9.75;;;;;;;17.35;51.92;98052.66;2096123;84;21642;-79
2021/11/03 12:51:45;;;;;;;8.30;3.45;;;;;;;17.34;49.95;98064.08;2096297;84;20976;-80
2021/11/03 12:54:45;;;;;;;7.12;4.78;;;;;;;16.78;51.41;98063.36;2080612;83;21046;-80
2021/11/03 12:57:48;;;;;;;14.90;7.10;;;;;;;16.36;51.78;98057.30;2055711;87;21027;-80
2021/11/03 13:00:49;;;;;;;9.35;5.85;;;;;;;16.39;52.35;98062.50;2055440;87;21109;-80
2021/11/03 13:03:49;;;;;;;10.25;5.58;;;;;;;16.59;51.87;98063.37;2054069;87;20975;-79
2021/11/03 13:06:50;;;;;;;15.60;5.90;;;;;;;16.44;51.41;98056.67;2054004;87;21363;-80
2021/11/03 13:09:50;;;;;;;14.93;6.12;;;;;;;16.27;52.24;98055.34;2054469;87;20943;-80
2021/11/03 13:12:51;;;;;;;26.42;6.00;;;;;;;16.16;52.05;98051.19;2055297;87;20975;-79
2021/11/03 13:15:51;;;;;;;24.90;4.83;;;;;;;16.41;53.06;98054.11;2054689;87;20971;-79
2021/11/03 13:18:52;;;;;;;10.18;5.25;;;;;;;16.74;52.92;98051.61;2053883;87;21443;-79
2021/11/03 13:21:52;;;;;;;22.62;6.53;;;;;;;16.95;52.47;98056.33;2053919;87;20960;-78
2021/11/03 13:24:53;;;;;;;10.80;3.55;;;;;;;17.13;52.70;98062.89;2053696;87;21034;-80
2021/11/03 13:27:53;;;;;;;9.48;3.77;;;;;;;17.21;52.44;98063.55;2053852;87;20983;-81
2021/11/03 13:30:54;;;;;;;4.80;2.70;;;;;;;17.35;52.16;98072.44;2054059;87;20971;-80
2021/11/03 13:33:54;;;;;;;12.80;5.70;;;;;;;17.18;50.75;98072.86;2054613;87;21730;-79
2021/11/03 13:36:55;;;;;;;33.63;17.48;;;;;;;16.96;50.31;98073.88;2054232;87;21325;-80
2021/11/03 13:39:55;;;;;;;13.13;4.10;;;;;;;16.78;51.07;98076.53;2054771;87;21355;-80
2021/11/03 13:42:56;;;;;;;5.45;3.55;;;;;;;16.85;51.68;98071.52;2055001;87;20963;-80
2021/11/03 13:45:56;;;;;;;11.57;4.22;;;;;;;16.84;52.05;98072.42;2055502;87;20932;-80
2021/11/03 13:48:57;;;;;;;5.80;3.52;;;;;;;16.52;51.88;98085.05;2054998;87;20970;-81
2021/11/03 13:51:57;;;;;;;8.60;3.67;;;;;;;16.36;53.05;98079.69;2055169;87;21003;-79
2021/11/03 13:54:58;;;;;;;7.90;3.77;;;;;;;16.18;52.77;98080.11;2070322;85;20992;-80
2021/11/03 13:57:58;;;;;;;5.20;3.33;;;;;;;16.23;53.83;98083.06;2099220;84;20956;-80
2021/11/03 14:01:00;;;;;;;7.28;3.92;;;;;;;16.52;54.39;98077.14;2099009;84;21387;-77